sensor_id;sensor_type;location;lat;lon;timestamp;P1;durP1;ratioP1;P2;durP2;ratioP2
59434;SDS011;45241;49.768;8.636;2023-01-19T00:01:32;12.45;;;5.82;;
59434;SDS011;45241;49.768;8.636;2023-01-19T00:03:58;11.48;;;6.07;;
59434;SDS011;45241;49.768;8.636;2023-01-19T00:06:23;11.32;;;6.35;;
59434;SDS011;45241;49.768;8.636;2023-01-19T00:08:49;12.88;;;6.70;;
59434;SDS011;45241;49.768;8.636;2023-01-19T00:11:14;13.27;;;6.38;;
59434;SDS011;45241;49.768;8.636;2023-01-19T00:13:42;13.02;;;6.82;;
59434;SDS011;45241;49.768;8.636;2023-01-19T00:16:13;12.55;;;7.07;;
59434;SDS011;45241;49.768;8.636;2023-01-19T00:18:41;11.38;;;6.75;;
59434;SDS011;45241;49.768;8.636;2023-01-19T00:21:07;12.68;;;6.75;;
59434;SDS011;45241;49.768;8.636;2023-01-19T00:23:33;11.00;;;6.65;;
59434;SDS011;45241;49.768;8.636;2023-01-19T00:25:58;12.75;;;7.45;;
59434;SDS011;45241;49.768;8.636;2023-01-19T00:28:23;13.27;;;7.63;;
59434;SDS011;45241;49.768;8.636;2023-01-19T00:30:48;11.27;;;6.82;;
59434;SDS011;45241;49.768;8.636;2023-01-19T00:33:14;12.77;;;7.03;;
59434;SDS011;45241;49.768;8.636;2023-01-19T00:35:40;11.27;;;6.50;;
59434;SDS011;45241;49.768;8.636;2023-01-19T00:38:09;10.70;;;6.55;;
59434;SDS011;45241;49.768;8.636;2023-01-19T00:40:37;14.95;;;6.90;;
59434;SDS011;45241;49.768;8.636;2023-01-19T00:43:02;11.38;;;7.03;;
59434;SDS011;45241;49.768;8.636;2023-01-19T00:45:29;14.07;;;6.85;;
59434;SDS011;45241;49.768;8.636;2023-01-19T00:47:54;12.35;;;7.03;;
59434;SDS011;45241;49.768;8.636;2023-01-19T00:50:23;11.88;;;7.25;;
59434;SDS011;45241;49.768;8.636;2023-01-19T00:52:50;11.50;;;7.15;;
59434;SDS011;45241;49.768;8.636;2023-01-19T00:55:17;12.07;;;6.43;;
59434;SDS011;45241;49.768;8.636;2023-01-19T00:57:42;12.27;;;7.20;;
59434;SDS011;45241;49.768;8.636;2023-01-19T01:00:09;10.70;;;6.63;;
59434;SDS011;45241;49.768;8.636;2023-01-19T01:02:39;12.68;;;6.82;;
59434;SDS011;45241;49.768;8.636;2023-01-19T01:05:06;13.45;;;7.00;;
59434;SDS011;45241;49.768;8.636;2023-01-19T01:07:32;12.52;;;7.22;;
59434;SDS011;45241;49.768;8.636;2023-01-19T01:10:04;11.77;;;6.65;;
59434;SDS011;45241;49.768;8.636;2023-01-19T01:12:35;13.40;;;7.90;;
59434;SDS011;45241;49.768;8.636;2023-01-19T01:15:00;12.82;;;7.82;;
59434;SDS011;45241;49.768;8.636;2023-01-19T01:17:26;13.27;;;7.68;;
59434;SDS011;45241;49.768;8.636;2023-01-19T01:19:51;15.57;;;8.68;;
59434;SDS011;45241;49.768;8.636;2023-01-19T01:22:16;16.08;;;7.85;;
59434;SDS011;45241;49.768;8.636;2023-01-19T01:24:42;16.63;;;8.70;;
59434;SDS011;45241;49.768;8.636;2023-01-19T01:27:08;16.23;;;7.80;;
59434;SDS011;45241;49.768;8.636;2023-01-19T01:29:33;15.20;;;8.02;;
59434;SDS011;45241;49.768;8.636;2023-01-19T01:31:59;14.85;;;8.30;;
59434;SDS011;45241;49.768;8.636;2023-01-19T01:34:25;17.95;;;8.85;;
59434;SDS011;45241;49.768;8.636;2023-01-19T01:36:50;14.70;;;8.23;;
59434;SDS011;45241;49.768;8.636;2023-01-19T01:39:15;15.95;;;8.55;;
59434;SDS011;45241;49.768;8.636;2023-01-19T01:41:41;13.85;;;8.88;;
59434;SDS011;45241;49.768;8.636;2023-01-19T01:50:22;15.13;;;9.45;;
59434;SDS011;45241;49.768;8.636;2023-01-19T01:52:51;15.35;;;9.13;;
59434;SDS011;45241;49.768;8.636;2023-01-19T01:55:20;16.87;;;8.97;;
59434;SDS011;45241;49.768;8.636;2023-01-19T01:57:48;13.20;;;8.73;;
59434;SDS011;45241;49.768;8.636;2023-01-19T02:00:18;17.42;;;8.88;;
59434;SDS011;45241;49.768;8.636;2023-01-19T02:02:44;14.77;;;9.10;;
59434;SDS011;45241;49.768;8.636;2023-01-19T02:08:01;14.80;;;8.93;;
59434;SDS011;45241;49.768;8.636;2023-01-19T02:10:49;14.30;;;8.02;;
59434;SDS011;45241;49.768;8.636;2023-01-19T02:13:35;15.35;;;8.60;;
59434;SDS011;45241;49.768;8.636;2023-01-19T02:16:05;14.80;;;8.43;;
59434;SDS011;45241;49.768;8.636;2023-01-19T02:18:32;15.70;;;8.68;;
59434;SDS011;45241;49.768;8.636;2023-01-19T02:26:11;14.87;;;8.63;;
59434;SDS011;45241;49.768;8.636;2023-01-19T02:31:07;19.65;;;10.20;;
59434;SDS011;45241;49.768;8.636;2023-01-19T02:33:32;17.13;;;10.02;;
59434;SDS011;45241;49.768;8.636;2023-01-19T02:35:58;16.77;;;10.20;;
59434;SDS011;45241;49.768;8.636;2023-01-19T02:38:25;18.48;;;10.60;;
59434;SDS011;45241;49.768;8.636;2023-01-19T02:40:53;15.93;;;10.15;;
59434;SDS011;45241;49.768;8.636;2023-01-19T02:43:21;16.42;;;9.80;;
59434;SDS011;45241;49.768;8.636;2023-01-19T02:45:48;15.32;;;10.20;;
59434;SDS011;45241;49.768;8.636;2023-01-19T02:48:14;17.27;;;9.68;;
59434;SDS011;45241;49.768;8.636;2023-01-19T02:50:43;15.88;;;8.98;;
59434;SDS011;45241;49.768;8.636;2023-01-19T02:55:55;20.77;;;10.77;;
59434;SDS011;45241;49.768;8.636;2023-01-19T03:01:14;21.67;;;10.52;;
59434;SDS011;45241;49.768;8.636;2023-01-19T03:03:54;16.98;;;10.23;;
59434;SDS011;45241;49.768;8.636;2023-01-19T03:09:01;19.10;;;11.43;;
59434;SDS011;45241;49.768;8.636;2023-01-19T03:11:35;18.85;;;10.85;;
59434;SDS011;45241;49.768;8.636;2023-01-19T03:14:11;19.50;;;10.23;;
59434;SDS011;45241;49.768;8.636;2023-01-19T03:16:46;16.90;;;10.27;;
59434;SDS011;45241;49.768;8.636;2023-01-19T03:19:35;18.35;;;11.05;;
59434;SDS011;45241;49.768;8.636;2023-01-19T03:22:10;19.15;;;10.27;;
59434;SDS011;45241;49.768;8.636;2023-01-19T03:24:42;18.73;;;10.85;;
59434;SDS011;45241;49.768;8.636;2023-01-19T03:27:28;18.95;;;10.68;;
59434;SDS011;45241;49.768;8.636;2023-01-19T03:30:14;20.20;;;10.40;;
59434;SDS011;45241;49.768;8.636;2023-01-19T03:32:50;17.40;;;10.57;;
59434;SDS011;45241;49.768;8.636;2023-01-19T03:35:18;20.95;;;11.23;;
59434;SDS011;45241;49.768;8.636;2023-01-19T03:37:49;16.85;;;10.45;;
59434;SDS011;45241;49.768;8.636;2023-01-19T03:40:18;19.30;;;12.52;;
59434;SDS011;45241;49.768;8.636;2023-01-19T03:42:44;19.75;;;10.93;;
59434;SDS011;45241;49.768;8.636;2023-01-19T03:45:11;20.55;;;12.43;;
59434;SDS011;45241;49.768;8.636;2023-01-19T03:47:38;19.95;;;11.20;;
59434;SDS011;45241;49.768;8.636;2023-01-19T03:50:05;19.67;;;11.75;;
59434;SDS011;45241;49.768;8.636;2023-01-19T03:52:34;21.05;;;11.63;;
59434;SDS011;45241;49.768;8.636;2023-01-19T03:55:03;22.73;;;13.00;;
59434;SDS011;45241;49.768;8.636;2023-01-19T03:57:30;20.55;;;12.35;;
59434;SDS011;45241;49.768;8.636;2023-01-19T03:59:56;23.33;;;11.55;;
59434;SDS011;45241;49.768;8.636;2023-01-19T04:02:22;20.52;;;11.73;;
59434;SDS011;45241;49.768;8.636;2023-01-19T04:04:47;18.35;;;11.80;;
59434;SDS011;45241;49.768;8.636;2023-01-19T04:07:13;19.40;;;11.57;;
59434;SDS011;45241;49.768;8.636;2023-01-19T04:09:38;18.20;;;11.07;;
59434;SDS011;45241;49.768;8.636;2023-01-19T04:12:04;20.92;;;12.27;;
59434;SDS011;45241;49.768;8.636;2023-01-19T04:14:30;21.48;;;12.30;;
59434;SDS011;45241;49.768;8.636;2023-01-19T04:16:55;18.17;;;11.25;;
59434;SDS011;45241;49.768;8.636;2023-01-19T04:19:20;24.20;;;11.05;;
59434;SDS011;45241;49.768;8.636;2023-01-19T04:21:48;18.33;;;11.18;;
59434;SDS011;45241;49.768;8.636;2023-01-19T04:24:14;19.80;;;11.05;;
59434;SDS011;45241;49.768;8.636;2023-01-19T04:26:40;17.90;;;11.27;;
59434;SDS011;45241;49.768;8.636;2023-01-19T04:29:05;18.13;;;11.60;;
59434;SDS011;45241;49.768;8.636;2023-01-19T04:31:31;17.50;;;10.73;;
59434;SDS011;45241;49.768;8.636;2023-01-19T04:33:56;17.98;;;10.65;;
59434;SDS011;45241;49.768;8.636;2023-01-19T04:36:22;17.52;;;10.65;;
59434;SDS011;45241;49.768;8.636;2023-01-19T04:38:47;20.23;;;11.32;;
59434;SDS011;45241;49.768;8.636;2023-01-19T04:41:13;22.83;;;11.30;;
59434;SDS011;45241;49.768;8.636;2023-01-19T04:43:38;20.35;;;11.85;;
59434;SDS011;45241;49.768;8.636;2023-01-19T04:46:03;17.02;;;10.90;;
59434;SDS011;45241;49.768;8.636;2023-01-19T04:48:29;18.45;;;11.13;;
59434;SDS011;45241;49.768;8.636;2023-01-19T04:50:54;18.48;;;10.52;;
59434;SDS011;45241;49.768;8.636;2023-01-19T04:53:19;16.80;;;10.95;;
59434;SDS011;45241;49.768;8.636;2023-01-19T04:55:45;18.88;;;10.82;;
59434;SDS011;45241;49.768;8.636;2023-01-19T04:58:10;16.85;;;10.20;;
59434;SDS011;45241;49.768;8.636;2023-01-19T05:00:36;18.35;;;9.77;;
59434;SDS011;45241;49.768;8.636;2023-01-19T05:03:01;17.48;;;9.63;;
59434;SDS011;45241;49.768;8.636;2023-01-19T05:05:26;14.63;;;9.68;;
59434;SDS011;45241;49.768;8.636;2023-01-19T05:07:52;14.05;;;9.50;;
59434;SDS011;45241;49.768;8.636;2023-01-19T05:10:17;16.92;;;9.93;;
59434;SDS011;45241;49.768;8.636;2023-01-19T05:12:43;13.60;;;8.95;;
59434;SDS011;45241;49.768;8.636;2023-01-19T05:15:08;16.63;;;9.85;;
59434;SDS011;45241;49.768;8.636;2023-01-19T05:17:34;15.05;;;9.43;;
59434;SDS011;45241;49.768;8.636;2023-01-19T05:20:00;16.30;;;10.50;;
59434;SDS011;45241;49.768;8.636;2023-01-19T05:22:25;16.98;;;10.77;;
59434;SDS011;45241;49.768;8.636;2023-01-19T05:24:51;18.48;;;11.27;;
59434;SDS011;45241;49.768;8.636;2023-01-19T05:27:16;18.35;;;10.95;;
59434;SDS011;45241;49.768;8.636;2023-01-19T05:29:41;20.35;;;11.52;;
59434;SDS011;45241;49.768;8.636;2023-01-19T05:32:07;19.20;;;10.77;;
59434;SDS011;45241;49.768;8.636;2023-01-19T05:34:32;17.85;;;11.60;;
59434;SDS011;45241;49.768;8.636;2023-01-19T05:36:58;20.67;;;10.98;;
59434;SDS011;45241;49.768;8.636;2023-01-19T05:39:23;21.98;;;11.85;;
59434;SDS011;45241;49.768;8.636;2023-01-19T05:41:50;19.63;;;11.65;;
59434;SDS011;45241;49.768;8.636;2023-01-19T05:44:16;17.35;;;10.45;;
59434;SDS011;45241;49.768;8.636;2023-01-19T05:46:41;21.15;;;10.93;;
59434;SDS011;45241;49.768;8.636;2023-01-19T05:49:06;18.60;;;11.07;;
59434;SDS011;45241;49.768;8.636;2023-01-19T05:51:32;17.20;;;10.52;;
59434;SDS011;45241;49.768;8.636;2023-01-19T05:54:10;19.00;;;10.35;;
59434;SDS011;45241;49.768;8.636;2023-01-19T05:56:37;16.85;;;10.98;;
59434;SDS011;45241;49.768;8.636;2023-01-19T05:59:03;18.50;;;10.75;;
59434;SDS011;45241;49.768;8.636;2023-01-19T06:01:28;18.73;;;10.10;;
59434;SDS011;45241;49.768;8.636;2023-01-19T06:03:54;19.63;;;11.00;;
59434;SDS011;45241;49.768;8.636;2023-01-19T06:06:19;15.80;;;9.73;;
59434;SDS011;45241;49.768;8.636;2023-01-19T06:08:44;21.05;;;10.20;;
59434;SDS011;45241;49.768;8.636;2023-01-19T06:11:10;19.00;;;10.93;;
59434;SDS011;45241;49.768;8.636;2023-01-19T06:13:35;19.00;;;10.05;;
59434;SDS011;45241;49.768;8.636;2023-01-19T06:16:01;18.42;;;10.68;;
59434;SDS011;45241;49.768;8.636;2023-01-19T06:18:27;20.55;;;10.82;;
59434;SDS011;45241;49.768;8.636;2023-01-19T06:20:53;16.35;;;10.13;;
59434;SDS011;45241;49.768;8.636;2023-01-19T06:23:29;19.65;;;11.73;;
59434;SDS011;45241;49.768;8.636;2023-01-19T06:25:55;20.52;;;11.80;;
59434;SDS011;45241;49.768;8.636;2023-01-19T06:28:21;18.95;;;12.07;;
59434;SDS011;45241;49.768;8.636;2023-01-19T06:30:48;18.58;;;11.05;;
59434;SDS011;45241;49.768;8.636;2023-01-19T06:33:14;19.88;;;11.50;;
59434;SDS011;45241;49.768;8.636;2023-01-19T06:35:43;21.63;;;11.00;;
59434;SDS011;45241;49.768;8.636;2023-01-19T06:38:10;17.90;;;10.77;;
59434;SDS011;45241;49.768;8.636;2023-01-19T06:40:37;18.17;;;11.05;;
59434;SDS011;45241;49.768;8.636;2023-01-19T06:43:04;18.13;;;10.68;;
59434;SDS011;45241;49.768;8.636;2023-01-19T06:45:29;20.17;;;11.48;;
59434;SDS011;45241;49.768;8.636;2023-01-19T06:47:55;20.70;;;11.93;;
59434;SDS011;45241;49.768;8.636;2023-01-19T06:50:20;21.40;;;13.43;;
59434;SDS011;45241;49.768;8.636;2023-01-19T06:52:48;20.10;;;12.20;;
59434;SDS011;45241;49.768;8.636;2023-01-19T06:55:15;19.45;;;12.20;;
59434;SDS011;45241;49.768;8.636;2023-01-19T06:57:40;20.83;;;13.18;;
59434;SDS011;45241;49.768;8.636;2023-01-19T07:00:06;21.05;;;12.15;;
59434;SDS011;45241;49.768;8.636;2023-01-19T07:02:36;20.40;;;12.75;;
59434;SDS011;45241;49.768;8.636;2023-01-19T07:05:02;20.27;;;12.00;;
59434;SDS011;45241;49.768;8.636;2023-01-19T07:07:28;18.60;;;13.25;;
59434;SDS011;45241;49.768;8.636;2023-01-19T07:09:53;21.63;;;12.63;;
59434;SDS011;45241;49.768;8.636;2023-01-19T07:12:19;22.80;;;13.45;;
59434;SDS011;45241;49.768;8.636;2023-01-19T07:14:44;22.10;;;12.82;;
59434;SDS011;45241;49.768;8.636;2023-01-19T07:17:09;21.60;;;13.18;;
59434;SDS011;45241;49.768;8.636;2023-01-19T07:19:36;20.75;;;13.25;;
59434;SDS011;45241;49.768;8.636;2023-01-19T07:22:01;24.30;;;13.57;;
59434;SDS011;45241;49.768;8.636;2023-01-19T07:24:27;22.42;;;13.65;;
59434;SDS011;45241;49.768;8.636;2023-01-19T07:26:54;20.00;;;13.18;;
59434;SDS011;45241;49.768;8.636;2023-01-19T07:29:20;23.65;;;14.35;;
59434;SDS011;45241;49.768;8.636;2023-01-19T07:31:45;24.33;;;14.27;;
59434;SDS011;45241;49.768;8.636;2023-01-19T07:34:12;23.85;;;14.18;;
59434;SDS011;45241;49.768;8.636;2023-01-19T07:36:38;22.65;;;14.57;;
59434;SDS011;45241;49.768;8.636;2023-01-19T07:39:03;22.48;;;14.13;;
59434;SDS011;45241;49.768;8.636;2023-01-19T07:41:28;25.75;;;15.30;;
59434;SDS011;45241;49.768;8.636;2023-01-19T07:43:54;26.40;;;15.77;;
59434;SDS011;45241;49.768;8.636;2023-01-19T07:46:19;24.42;;;14.80;;
59434;SDS011;45241;49.768;8.636;2023-01-19T07:48:44;24.45;;;14.60;;
59434;SDS011;45241;49.768;8.636;2023-01-19T07:51:11;24.13;;;14.23;;
59434;SDS011;45241;49.768;8.636;2023-01-19T07:53:41;25.13;;;15.45;;
59434;SDS011;45241;49.768;8.636;2023-01-19T07:56:07;23.88;;;15.43;;
59434;SDS011;45241;49.768;8.636;2023-01-19T07:58:32;24.55;;;15.10;;
59434;SDS011;45241;49.768;8.636;2023-01-19T08:00:58;25.10;;;15.70;;
59434;SDS011;45241;49.768;8.636;2023-01-19T08:03:23;24.52;;;15.23;;
59434;SDS011;45241;49.768;8.636;2023-01-19T08:05:49;27.45;;;15.93;;
59434;SDS011;45241;49.768;8.636;2023-01-19T08:08:16;24.85;;;14.85;;
59434;SDS011;45241;49.768;8.636;2023-01-19T08:10:42;23.52;;;14.30;;
59434;SDS011;45241;49.768;8.636;2023-01-19T08:13:07;23.55;;;13.90;;
59434;SDS011;45241;49.768;8.636;2023-01-19T08:15:32;25.55;;;14.00;;
59434;SDS011;45241;49.768;8.636;2023-01-19T08:18:01;22.58;;;13.68;;
59434;SDS011;45241;49.768;8.636;2023-01-19T08:20:29;20.27;;;11.98;;
59434;SDS011;45241;49.768;8.636;2023-01-19T08:22:56;23.58;;;13.00;;
59434;SDS011;45241;49.768;8.636;2023-01-19T08:25:45;21.73;;;12.95;;
59434;SDS011;45241;49.768;8.636;2023-01-19T08:28:11;18.27;;;11.52;;
59434;SDS011;45241;49.768;8.636;2023-01-19T08:30:38;23.67;;;12.75;;
59434;SDS011;45241;49.768;8.636;2023-01-19T08:33:04;23.02;;;12.13;;
59434;SDS011;45241;49.768;8.636;2023-01-19T08:35:37;18.73;;;12.23;;
59434;SDS011;45241;49.768;8.636;2023-01-19T08:38:03;19.10;;;11.70;;
59434;SDS011;45241;49.768;8.636;2023-01-19T08:40:30;21.02;;;12.50;;
59434;SDS011;45241;49.768;8.636;2023-01-19T08:43:04;20.77;;;12.02;;
59434;SDS011;45241;49.768;8.636;2023-01-19T08:45:35;18.02;;;11.50;;
59434;SDS011;45241;49.768;8.636;2023-01-19T08:50:28;19.50;;;11.70;;
59434;SDS011;45241;49.768;8.636;2023-01-19T08:52:55;17.27;;;11.50;;
59434;SDS011;45241;49.768;8.636;2023-01-19T08:55:22;19.50;;;11.27;;
59434;SDS011;45241;49.768;8.636;2023-01-19T08:57:54;16.67;;;10.35;;
59434;SDS011;45241;49.768;8.636;2023-01-19T09:00:22;19.30;;;10.82;;
59434;SDS011;45241;49.768;8.636;2023-01-19T09:02:49;17.60;;;10.75;;
59434;SDS011;45241;49.768;8.636;2023-01-19T09:05:15;16.48;;;10.38;;
59434;SDS011;45241;49.768;8.636;2023-01-19T09:07:41;17.05;;;10.60;;
59434;SDS011;45241;49.768;8.636;2023-01-19T09:10:07;17.08;;;10.95;;
59434;SDS011;45241;49.768;8.636;2023-01-19T09:12:34;17.55;;;11.07;;
59434;SDS011;45241;49.768;8.636;2023-01-19T09:14:59;18.10;;;11.02;;
59434;SDS011;45241;49.768;8.636;2023-01-19T09:17:25;18.83;;;11.05;;
59434;SDS011;45241;49.768;8.636;2023-01-19T09:19:50;17.10;;;11.02;;
59434;SDS011;45241;49.768;8.636;2023-01-19T09:22:15;17.15;;;9.45;;
59434;SDS011;45241;49.768;8.636;2023-01-19T09:24:41;19.67;;;10.07;;
59434;SDS011;45241;49.768;8.636;2023-01-19T09:27:06;17.98;;;10.73;;
59434;SDS011;45241;49.768;8.636;2023-01-19T09:29:32;16.75;;;10.32;;
59434;SDS011;45241;49.768;8.636;2023-01-19T09:31:57;18.30;;;10.88;;
59434;SDS011;45241;49.768;8.636;2023-01-19T09:34:22;15.40;;;9.75;;
59434;SDS011;45241;49.768;8.636;2023-01-19T09:36:49;19.23;;;10.38;;
59434;SDS011;45241;49.768;8.636;2023-01-19T09:39:15;15.48;;;10.05;;
59434;SDS011;45241;49.768;8.636;2023-01-19T09:41:41;16.50;;;10.32;;
59434;SDS011;45241;49.768;8.636;2023-01-19T09:44:13;19.10;;;10.43;;
59434;SDS011;45241;49.768;8.636;2023-01-19T09:46:42;20.20;;;11.48;;
59434;SDS011;45241;49.768;8.636;2023-01-19T09:49:12;17.05;;;10.13;;
59434;SDS011;45241;49.768;8.636;2023-01-19T09:51:44;20.30;;;10.75;;
59434;SDS011;45241;49.768;8.636;2023-01-19T09:54:16;20.30;;;10.18;;
59434;SDS011;45241;49.768;8.636;2023-01-19T09:56:44;19.33;;;11.02;;
59434;SDS011;45241;49.768;8.636;2023-01-19T09:59:22;18.55;;;10.52;;
59434;SDS011;45241;49.768;8.636;2023-01-19T10:01:57;19.95;;;11.00;;
59434;SDS011;45241;49.768;8.636;2023-01-19T10:07:23;17.80;;;10.35;;
59434;SDS011;45241;49.768;8.636;2023-01-19T10:12:45;17.98;;;10.88;;
59434;SDS011;45241;49.768;8.636;2023-01-19T10:20:34;20.00;;;11.55;;
59434;SDS011;45241;49.768;8.636;2023-01-19T10:26:08;20.55;;;12.23;;
59434;SDS011;45241;49.768;8.636;2023-01-19T10:28:41;20.33;;;11.70;;
59434;SDS011;45241;49.768;8.636;2023-01-19T10:31:07;20.40;;;12.88;;
59434;SDS011;45241;49.768;8.636;2023-01-19T10:33:33;23.38;;;13.43;;
59434;SDS011;45241;49.768;8.636;2023-01-19T10:38:40;20.25;;;12.55;;
59434;SDS011;45241;49.768;8.636;2023-01-19T10:41:09;21.17;;;12.05;;
59434;SDS011;45241;49.768;8.636;2023-01-19T10:46:16;19.67;;;12.73;;
59434;SDS011;45241;49.768;8.636;2023-01-19T10:48:49;21.30;;;12.85;;
59434;SDS011;45241;49.768;8.636;2023-01-19T10:51:16;20.20;;;12.75;;
59434;SDS011;45241;49.768;8.636;2023-01-19T10:53:51;22.23;;;12.02;;
59434;SDS011;45241;49.768;8.636;2023-01-19T10:56:20;22.52;;;13.25;;
59434;SDS011;45241;49.768;8.636;2023-01-19T10:58:48;22.58;;;13.18;;
59434;SDS011;45241;49.768;8.636;2023-01-19T11:01:16;21.67;;;12.38;;
59434;SDS011;45241;49.768;8.636;2023-01-19T11:03:46;23.52;;;12.90;;
59434;SDS011;45241;49.768;8.636;2023-01-19T11:08:37;21.77;;;13.13;;
59434;SDS011;45241;49.768;8.636;2023-01-19T11:11:03;22.17;;;12.73;;
59434;SDS011;45241;49.768;8.636;2023-01-19T11:13:32;19.38;;;12.00;;
59434;SDS011;45241;49.768;8.636;2023-01-19T11:15:58;21.73;;;12.20;;
59434;SDS011;45241;49.768;8.636;2023-01-19T11:18:36;22.00;;;12.23;;
59434;SDS011;45241;49.768;8.636;2023-01-19T11:21:07;19.73;;;12.05;;
59434;SDS011;45241;49.768;8.636;2023-01-19T11:23:35;19.52;;;11.85;;
59434;SDS011;45241;49.768;8.636;2023-01-19T11:26:08;19.85;;;11.98;;
59434;SDS011;45241;49.768;8.636;2023-01-19T11:28:46;23.83;;;12.07;;
59434;SDS011;45241;49.768;8.636;2023-01-19T11:31:16;23.65;;;12.55;;
59434;SDS011;45241;49.768;8.636;2023-01-19T11:36:16;20.08;;;11.48;;
59434;SDS011;45241;49.768;8.636;2023-01-19T11:38:46;21.52;;;11.55;;
59434;SDS011;45241;49.768;8.636;2023-01-19T11:41:20;17.50;;;10.55;;
59434;SDS011;45241;49.768;8.636;2023-01-19T11:43:59;20.83;;;10.60;;
59434;SDS011;45241;49.768;8.636;2023-01-19T11:46:36;17.42;;;10.57;;
59434;SDS011;45241;49.768;8.636;2023-01-19T11:49:06;21.08;;;12.40;;
59434;SDS011;45241;49.768;8.636;2023-01-19T11:51:48;17.98;;;11.57;;
59434;SDS011;45241;49.768;8.636;2023-01-19T11:54:22;15.82;;;10.48;;
59434;SDS011;45241;49.768;8.636;2023-01-19T11:56:53;19.25;;;11.27;;
59434;SDS011;45241;49.768;8.636;2023-01-19T11:59:22;17.52;;;11.57;;
59434;SDS011;45241;49.768;8.636;2023-01-19T12:01:50;16.15;;;10.25;;
59434;SDS011;45241;49.768;8.636;2023-01-19T12:07:02;18.65;;;10.85;;
59434;SDS011;45241;49.768;8.636;2023-01-19T12:12:00;17.95;;;11.65;;
59434;SDS011;45241;49.768;8.636;2023-01-19T12:17:06;19.42;;;11.38;;
59434;SDS011;45241;49.768;8.636;2023-01-19T12:19:40;20.40;;;11.80;;
59434;SDS011;45241;49.768;8.636;2023-01-19T12:22:13;21.52;;;12.80;;
59434;SDS011;45241;49.768;8.636;2023-01-19T12:24:45;20.27;;;12.13;;
59434;SDS011;45241;49.768;8.636;2023-01-19T12:27:15;20.23;;;13.00;;
59434;SDS011;45241;49.768;8.636;2023-01-19T12:29:47;22.92;;;13.45;;
59434;SDS011;45241;49.768;8.636;2023-01-19T12:34:44;24.73;;;14.25;;
59434;SDS011;45241;49.768;8.636;2023-01-19T12:39:51;24.85;;;14.32;;
59434;SDS011;45241;49.768;8.636;2023-01-19T12:42:17;21.85;;;13.77;;
59434;SDS011;45241;49.768;8.636;2023-01-19T12:44:45;24.17;;;14.60;;
59434;SDS011;45241;49.768;8.636;2023-01-19T12:52:38;24.08;;;13.95;;
59434;SDS011;45241;49.768;8.636;2023-01-19T12:57:39;31.15;;;16.20;;
59434;SDS011;45241;49.768;8.636;2023-01-19T13:02:48;25.30;;;15.23;;
59434;SDS011;45241;49.768;8.636;2023-01-19T13:18:42;24.38;;;14.18;;
59434;SDS011;45241;49.768;8.636;2023-01-19T13:21:08;23.77;;;14.65;;
59434;SDS011;45241;49.768;8.636;2023-01-19T13:26:15;26.23;;;14.10;;
59434;SDS011;45241;49.768;8.636;2023-01-19T13:28:44;23.58;;;14.43;;
59434;SDS011;45241;49.768;8.636;2023-01-19T13:31:12;26.10;;;14.25;;
59434;SDS011;45241;49.768;8.636;2023-01-19T13:33:51;26.15;;;14.35;;
59434;SDS011;45241;49.768;8.636;2023-01-19T13:36:23;22.50;;;12.75;;
59434;SDS011;45241;49.768;8.636;2023-01-19T13:38:53;18.58;;;11.55;;
59434;SDS011;45241;49.768;8.636;2023-01-19T13:41:23;22.83;;;12.50;;
59434;SDS011;45241;49.768;8.636;2023-01-19T13:44:01;19.92;;;11.48;;
59434;SDS011;45241;49.768;8.636;2023-01-19T13:46:31;19.08;;;11.57;;
59434;SDS011;45241;49.768;8.636;2023-01-19T13:49:03;19.52;;;11.15;;
59434;SDS011;45241;49.768;8.636;2023-01-19T13:51:37;18.85;;;11.57;;
59434;SDS011;45241;49.768;8.636;2023-01-19T13:54:02;19.63;;;11.10;;
59434;SDS011;45241;49.768;8.636;2023-01-19T13:56:29;19.38;;;10.88;;
59434;SDS011;45241;49.768;8.636;2023-01-19T14:01:34;19.70;;;10.68;;
59434;SDS011;45241;49.768;8.636;2023-01-19T14:04:01;18.63;;;10.40;;
59434;SDS011;45241;49.768;8.636;2023-01-19T14:06:30;17.67;;;10.02;;
59434;SDS011;45241;49.768;8.636;2023-01-19T14:09:07;17.58;;;10.70;;
59434;SDS011;45241;49.768;8.636;2023-01-19T14:11:40;16.73;;;8.82;;
59434;SDS011;45241;49.768;8.636;2023-01-19T14:14:19;17.25;;;9.50;;
59434;SDS011;45241;49.768;8.636;2023-01-19T14:16:46;14.95;;;9.15;;
59434;SDS011;45241;49.768;8.636;2023-01-19T14:19:11;17.20;;;9.88;;
59434;SDS011;45241;49.768;8.636;2023-01-19T14:21:37;15.48;;;9.43;;
59434;SDS011;45241;49.768;8.636;2023-01-19T14:24:05;17.63;;;9.27;;
59434;SDS011;45241;49.768;8.636;2023-01-19T14:26:38;14.43;;;9.13;;
59434;SDS011;45241;49.768;8.636;2023-01-19T14:31:46;14.35;;;9.50;;
59434;SDS011;45241;49.768;8.636;2023-01-19T14:34:33;18.83;;;10.15;;
59434;SDS011;45241;49.768;8.636;2023-01-19T14:36:59;15.30;;;9.52;;
59434;SDS011;45241;49.768;8.636;2023-01-19T14:39:27;16.45;;;9.20;;
59434;SDS011;45241;49.768;8.636;2023-01-19T14:41:56;15.90;;;9.70;;
59434;SDS011;45241;49.768;8.636;2023-01-19T14:44:27;18.25;;;9.35;;
59434;SDS011;45241;49.768;8.636;2023-01-19T14:47:01;15.77;;;9.55;;
59434;SDS011;45241;49.768;8.636;2023-01-19T14:49:34;14.82;;;8.98;;
59434;SDS011;45241;49.768;8.636;2023-01-19T14:52:02;13.13;;;8.63;;
59434;SDS011;45241;49.768;8.636;2023-01-19T14:54:36;15.20;;;8.35;;
59434;SDS011;45241;49.768;8.636;2023-01-19T14:57:03;13.73;;;8.05;;
59434;SDS011;45241;49.768;8.636;2023-01-19T14:59:29;14.15;;;8.20;;
59434;SDS011;45241;49.768;8.636;2023-01-19T15:01:55;13.57;;;8.75;;
59434;SDS011;45241;49.768;8.636;2023-01-19T15:04:21;15.77;;;8.00;;
59434;SDS011;45241;49.768;8.636;2023-01-19T15:06:47;15.57;;;7.97;;
59434;SDS011;45241;49.768;8.636;2023-01-19T15:09:13;15.63;;;8.07;;
59434;SDS011;45241;49.768;8.636;2023-01-19T15:11:39;14.50;;;8.23;;
59434;SDS011;45241;49.768;8.636;2023-01-19T15:14:05;12.70;;;7.88;;
59434;SDS011;45241;49.768;8.636;2023-01-19T15:16:32;16.63;;;8.15;;
59434;SDS011;45241;49.768;8.636;2023-01-19T15:18:58;16.90;;;7.97;;
59434;SDS011;45241;49.768;8.636;2023-01-19T15:21:24;13.73;;;7.40;;
59434;SDS011;45241;49.768;8.636;2023-01-19T15:23:53;12.70;;;7.70;;
59434;SDS011;45241;49.768;8.636;2023-01-19T15:26:19;13.00;;;8.27;;
59434;SDS011;45241;49.768;8.636;2023-01-19T15:31:14;13.60;;;8.45;;
59434;SDS011;45241;49.768;8.636;2023-01-19T15:33:44;14.07;;;8.13;;
59434;SDS011;45241;49.768;8.636;2023-01-19T15:36:17;13.68;;;8.25;;
59434;SDS011;45241;49.768;8.636;2023-01-19T15:38:44;13.38;;;8.10;;
59434;SDS011;45241;49.768;8.636;2023-01-19T15:41:13;12.43;;;7.63;;
59434;SDS011;45241;49.768;8.636;2023-01-19T15:43:44;16.10;;;8.25;;
59434;SDS011;45241;49.768;8.636;2023-01-19T15:46:10;14.73;;;8.27;;
59434;SDS011;45241;49.768;8.636;2023-01-19T15:48:39;15.07;;;8.30;;
59434;SDS011;45241;49.768;8.636;2023-01-19T15:51:04;12.20;;;7.65;;
59434;SDS011;45241;49.768;8.636;2023-01-19T15:53:30;14.50;;;7.93;;
59434;SDS011;45241;49.768;8.636;2023-01-19T15:55:55;12.05;;;7.57;;
59434;SDS011;45241;49.768;8.636;2023-01-19T15:58:21;15.02;;;8.45;;
59434;SDS011;45241;49.768;8.636;2023-01-19T16:00:53;13.40;;;7.10;;
59434;SDS011;45241;49.768;8.636;2023-01-19T16:03:20;14.48;;;7.75;;
59434;SDS011;45241;49.768;8.636;2023-01-19T16:05:46;13.15;;;8.18;;
59434;SDS011;45241;49.768;8.636;2023-01-19T16:08:11;13.07;;;7.88;;
59434;SDS011;45241;49.768;8.636;2023-01-19T16:10:37;12.85;;;8.07;;